createdAt,value
2019-04-29T00:02:59.963Z,2.80
2019-04-29T00:06:02.236Z,2.87
2019-04-29T00:09:06.872Z,4.10
2019-04-29T00:12:07.931Z,2.43
2019-04-29T00:16:20.651Z,3.40
2019-04-29T00:21:29.415Z,3.33
2019-04-29T00:24:31.643Z,3.90
2019-04-29T00:27:33.933Z,4.10
2019-04-29T00:30:36.228Z,3.73
2019-04-29T00:33:38.455Z,4.03
2019-04-29T00:36:45.237Z,3.40
2019-04-29T00:40:00.956Z,4.13
2019-04-29T00:43:12.712Z,4.53
2019-04-29T00:46:15.105Z,2.93
2019-04-29T00:49:17.319Z,3.87
2019-04-29T00:52:19.551Z,3.37
2019-04-29T00:55:22.843Z,4.17
2019-04-29T00:58:25.070Z,4.17
2019-04-29T01:01:27.349Z,3.93
2019-04-29T01:04:29.627Z,3.50
2019-04-29T01:07:31.891Z,4.77
2019-04-29T01:10:34.116Z,5.70
2019-04-29T01:13:36.351Z,5.17
2019-04-29T01:16:38.631Z,5.40
2019-04-29T01:19:40.852Z,5.37
2019-04-29T01:22:43.083Z,3.63
2019-04-29T01:25:45.806Z,7.57
2019-04-29T01:28:51.088Z,3.70
2019-04-29T01:31:53.323Z,4.97
2019-04-29T01:34:55.596Z,4.73
2019-04-29T01:37:57.868Z,4.07
2019-04-29T01:41:04.859Z,3.93
2019-04-29T01:44:07.844Z,3.43
2019-04-29T01:47:10.214Z,5.20
2019-04-29T01:50:12.447Z,4.67
2019-04-29T01:53:14.664Z,4.07
2019-04-29T01:56:16.943Z,4.67
2019-04-29T01:59:19.342Z,6.70
2019-04-29T02:02:21.603Z,5.87
2019-04-29T02:05:23.908Z,4.60
2019-04-29T02:08:26.115Z,4.30
2019-04-29T02:11:28.367Z,6.50
2019-04-29T02:14:30.631Z,4.90
2019-04-29T02:17:32.822Z,5.07
2019-04-29T02:20:35.008Z,6.53
2019-04-29T02:24:43.099Z,6.40
2019-04-29T02:27:45.319Z,6.40
2019-04-29T02:30:48.028Z,4.37
2019-04-29T02:33:50.254Z,6.40
2019-04-29T02:36:52.490Z,5.60
2019-04-29T02:39:59.314Z,5.93
2019-04-29T02:43:06.777Z,6.83
2019-04-29T02:46:08.980Z,6.90
2019-04-29T02:49:11.198Z,6.80
2019-04-29T02:52:13.443Z,7.60
2019-04-29T02:55:18.188Z,8.47
2019-04-29T02:58:39.351Z,6.23
2019-04-29T03:01:48.047Z,7.33
2019-04-29T03:05:26.577Z,7.20
2019-04-29T03:08:28.853Z,6.93
2019-04-29T03:11:31.066Z,6.40
2019-04-29T03:14:33.338Z,6.23
2019-04-29T03:17:35.628Z,8.20
2019-04-29T03:20:42.523Z,4.83
2019-04-29T03:23:44.773Z,6.23
2019-04-29T03:26:47.035Z,8.40
2019-04-29T03:29:49.306Z,8.20
2019-04-29T03:32:51.521Z,8.63
2019-04-29T03:35:53.755Z,5.90
2019-04-29T03:38:55.957Z,6.20
2019-04-29T03:41:58.176Z,6.87
2019-04-29T03:45:00.404Z,6.43
2019-04-29T03:48:02.779Z,5.93
2019-04-29T03:51:05.015Z,5.93
2019-04-29T03:54:08.934Z,7.30
2019-04-29T03:57:11.220Z,6.80
2019-04-29T04:00:13.540Z,6.27
2019-04-29T04:03:26.163Z,5.50
2019-04-29T04:06:36.233Z,6.30
2019-04-29T04:09:38.489Z,7.10
2019-04-29T04:12:40.776Z,6.33
2019-04-29T04:15:43.013Z,6.70
2019-04-29T04:18:45.277Z,7.20
2019-04-29T04:21:47.487Z,5.73
2019-04-29T04:24:51.788Z,8.70
2019-04-29T04:27:54.029Z,6.10
2019-04-29T04:30:56.395Z,5.27
2019-04-29T04:33:58.540Z,8.03
2019-04-29T04:37:00.775Z,7.80
2019-04-29T04:40:03.383Z,8.00
2019-04-29T04:43:05.676Z,7.37
2019-04-29T04:46:07.921Z,8.00
2019-04-29T04:49:10.173Z,9.37
2019-04-29T04:52:12.419Z,8.20
2019-04-29T04:55:14.683Z,8.60
2019-04-29T04:58:16.926Z,8.37
2019-04-29T05:01:19.224Z,10.57
2019-04-29T05:04:21.433Z,9.90
2019-04-29T05:07:23.671Z,7.50
2019-04-29T05:10:25.888Z,9.23
2019-04-29T05:13:28.822Z,8.10
2019-04-29T05:16:30.464Z,6.87
2019-04-29T05:19:32.728Z,24.30
2019-04-29T05:22:34.931Z,16.17
2019-04-29T05:25:37.191Z,14.13
2019-04-29T05:28:39.547Z,8.73
2019-04-29T05:31:41.773Z,8.97
2019-04-29T05:34:46.548Z,7.97
2019-04-29T05:37:51.669Z,9.00
2019-04-29T05:40:56.753Z,7.93
2019-04-29T05:44:01.824Z,8.43
2019-04-29T05:47:07.075Z,8.37
2019-04-29T05:50:26.846Z,8.57
2019-04-29T05:53:33.216Z,8.07
2019-04-29T05:56:35.449Z,8.47
2019-04-29T05:59:37.653Z,9.50
2019-04-29T06:02:39.901Z,11.80
2019-04-29T06:05:42.123Z,15.30
2019-04-29T06:08:44.363Z,9.07
2019-04-29T06:11:46.715Z,11.77
2019-04-29T06:14:49.025Z,12.73
2019-04-29T06:17:51.246Z,9.23
2019-04-29T06:20:53.527Z,12.13
2019-04-29T06:23:59.366Z,10.60
2019-04-29T06:26:58.024Z,9.23
2019-04-29T06:30:03.218Z,13.63
2019-04-29T06:33:02.484Z,13.00
2019-04-29T06:36:04.821Z,10.33
2019-04-29T06:39:07.196Z,9.57
2019-04-29T06:42:09.432Z,12.97
2019-04-29T06:45:11.755Z,12.03
2019-04-29T06:48:13.999Z,13.30
2019-04-29T06:51:16.228Z,11.33
2019-04-29T06:54:18.440Z,13.33
2019-04-29T06:57:20.704Z,13.53
2019-04-29T07:00:24.018Z,13.17
2019-04-29T07:03:26.587Z,13.80
2019-04-29T07:06:27.409Z,11.93
2019-04-29T07:09:29.641Z,12.73
2019-04-29T07:12:31.867Z,12.67
2019-04-29T07:15:34.143Z,13.90
2019-04-29T07:18:39.851Z,12.03
2019-04-29T07:21:41.789Z,12.47
2019-04-29T07:24:40.946Z,10.50
2019-04-29T07:27:44.612Z,14.33
2019-04-29T07:31:00.627Z,13.00
2019-04-29T07:33:48.051Z,13.77
2019-04-29T07:36:53.166Z,10.73
2019-04-29T07:39:52.644Z,11.90
2019-04-29T07:42:54.901Z,14.47
2019-04-29T07:46:07.692Z,13.80
2019-04-29T07:49:12.702Z,14.67
2019-04-29T07:52:14.603Z,15.27
2019-04-29T07:55:14.735Z,16.63
2019-04-29T07:58:17.157Z,15.30
2019-04-29T08:01:19.931Z,16.27
2019-04-29T08:04:21.794Z,16.03
2019-04-29T08:07:24.229Z,16.70
2019-04-29T08:10:28.560Z,13.23
2019-04-29T08:13:29.239Z,12.93
2019-04-29T08:16:31.611Z,20.17
2019-04-29T08:19:33.829Z,15.73
2019-04-29T08:22:36.199Z,15.10
2019-04-29T08:25:38.499Z,17.43
2019-04-29T08:28:40.732Z,14.23
2019-04-29T08:31:42.996Z,14.70
2019-04-29T08:34:45.296Z,14.63
2019-04-29T08:37:47.645Z,23.70
2019-04-29T08:40:51.622Z,13.60
2019-04-29T08:44:14.681Z,14.43
2019-04-29T08:47:06.695Z,19.93
2019-04-29T08:50:09.192Z,15.73
2019-04-29T08:53:11.523Z,19.33
2019-04-29T08:56:13.823Z,16.60
2019-04-29T08:59:16.047Z,14.53
2019-04-29T09:02:33.050Z,18.73
2019-04-29T09:05:20.632Z,19.37
2019-04-29T09:08:22.925Z,13.47
2019-04-29T09:11:25.176Z,19.20
2019-04-29T09:14:27.411Z,20.07
2019-04-29T09:17:29.691Z,13.77
2019-04-29T09:20:31.949Z,21.10
2019-04-29T09:23:34.223Z,19.90
2019-04-29T09:26:40.080Z,16.63
2019-04-29T09:30:13.316Z,18.60
2019-04-29T09:33:15.635Z,17.70
2019-04-29T09:36:17.939Z,21.93
2019-04-29T09:39:21.384Z,16.87
2019-04-29T09:42:32.015Z,15.73
2019-04-29T09:45:45.536Z,18.90
2019-04-29T09:48:47.835Z,18.63
2019-04-29T09:51:50.100Z,18.70
2019-04-29T09:54:52.360Z,20.97
2019-04-29T09:57:54.740Z,20.83
2019-04-29T10:01:03.325Z,20.80
2019-04-29T10:04:11.159Z,15.07
2019-04-29T10:07:13.540Z,21.13
2019-04-29T10:10:15.844Z,18.97
2019-04-29T10:13:18.183Z,14.60
2019-04-29T10:16:45.980Z,15.90
2019-04-29T10:20:54.324Z,14.47
2019-04-29T10:23:56.591Z,14.13
2019-04-29T10:26:59.039Z,15.47
2019-04-29T10:30:01.338Z,16.30
2019-04-29T10:33:03.642Z,14.83
2019-04-29T10:36:06.113Z,16.87
2019-04-29T10:39:13.811Z,15.20
2019-04-29T10:42:22.971Z,18.50
2019-04-29T10:45:30.598Z,20.97
2019-04-29T10:48:37.390Z,18.77
2019-04-29T10:51:39.723Z,16.77
2019-04-29T10:54:42.018Z,19.43
2019-04-29T10:57:44.925Z,20.80
2019-04-29T11:01:14.515Z,18.53
2019-04-29T11:04:16.799Z,17.03
2019-04-29T11:07:27.794Z,22.53
2019-04-29T11:10:30.284Z,50.60
2019-04-29T11:13:32.557Z,48.90
2019-04-29T11:16:46.087Z,46.53
2019-04-29T11:19:40.059Z,21.47
2019-04-29T11:22:44.601Z,25.47
2019-04-29T11:26:24.332Z,15.90
2019-04-29T11:29:29.000Z,17.13
2019-04-29T11:32:35.973Z,13.07
2019-04-29T11:36:10.900Z,14.83
2019-04-29T11:39:14.204Z,13.27
2019-04-29T11:42:16.103Z,13.07
2019-04-29T11:45:18.410Z,15.60
2019-04-29T11:48:20.709Z,16.13
2019-04-29T11:51:27.395Z,16.30
2019-04-29T11:54:29.684Z,14.13
2019-04-29T11:57:41.055Z,11.93
2019-04-29T12:00:47.428Z,14.37
2019-04-29T12:03:51.555Z,10.70
2019-04-29T12:06:56.243Z,8.97
2019-04-29T12:09:54.347Z,8.37
2019-04-29T12:12:56.716Z,11.43
2019-04-29T12:16:07.327Z,7.27
2019-04-29T12:19:17.214Z,9.33
2019-04-29T12:22:28.357Z,12.87
2019-04-29T12:25:22.990Z,8.43
2019-04-29T12:28:23.416Z,9.53
2019-04-29T12:31:30.043Z,8.03
2019-04-29T12:34:40.856Z,11.40
2019-04-29T12:37:48.781Z,12.83
2019-04-29T12:40:58.614Z,9.63
2019-04-29T12:44:04.413Z,7.87
2019-04-29T12:47:25.848Z,11.10
2019-04-29T12:50:21.551Z,10.60
2019-04-29T12:53:19.779Z,11.27
2019-04-29T12:56:26.708Z,10.40
2019-04-29T12:59:30.575Z,11.13
2019-04-29T13:02:37.681Z,10.37
2019-04-29T13:06:02.510Z,12.73
2019-04-29T13:09:17.539Z,16.03
2019-04-29T13:12:18.956Z,12.03
2019-04-29T13:15:17.875Z,13.87
2019-04-29T13:18:24.712Z,13.67
2019-04-29T13:21:27.025Z,12.43
2019-04-29T13:24:29.791Z,13.70
2019-04-29T13:27:32.031Z,15.97
2019-04-29T13:30:34.399Z,16.63
2019-04-29T13:33:36.680Z,17.93
2019-04-29T13:36:38.988Z,17.53
2019-04-29T13:39:41.254Z,14.73
2019-04-29T13:42:48.540Z,12.63
2019-04-29T13:45:50.232Z,11.07
2019-04-29T13:49:12.346Z,10.80
2019-04-29T13:52:03.556Z,10.43
2019-04-29T13:55:17.162Z,12.33
2019-04-29T13:58:08.190Z,11.90
2019-04-29T14:01:23.754Z,11.80
2019-04-29T14:04:26.266Z,19.13
2019-04-29T14:07:27.620Z,14.80
2019-04-29T14:10:29.943Z,11.73
2019-04-29T14:13:32.277Z,13.43
2019-04-29T14:16:34.624Z,14.73
2019-04-29T14:19:42.352Z,12.27
2019-04-29T14:22:39.303Z,12.97
2019-04-29T14:25:41.623Z,10.00
2019-04-29T14:28:43.845Z,12.20
2019-04-29T14:31:46.906Z,16.50
2019-04-29T14:34:55.398Z,11.83
2019-04-29T14:38:04.388Z,11.40
2019-04-29T14:41:00.491Z,11.10
2019-04-29T14:44:08.312Z,11.47
2019-04-29T14:47:15.923Z,14.07
2019-04-29T14:50:20.726Z,12.40
2019-04-29T14:53:24.265Z,9.53
2019-04-29T14:56:22.805Z,12.90
2019-04-29T14:59:25.267Z,12.83
2019-04-29T15:02:27.639Z,12.97
2019-04-29T15:05:32.826Z,14.27
2019-04-29T15:08:36.148Z,13.67
2019-04-29T15:11:41.179Z,12.70
2019-04-29T15:14:48.968Z,12.50
2019-04-29T15:17:57.098Z,11.83
2019-04-29T15:22:07.008Z,15.00
2019-04-29T15:25:09.279Z,15.60
2019-04-29T15:28:11.531Z,15.80
2019-04-29T15:31:15.682Z,13.00
2019-04-29T15:34:15.989Z,12.13
2019-04-29T15:37:18.206Z,18.70
2019-04-29T15:40:25.481Z,10.60
2019-04-29T15:43:45.213Z,8.30
2019-04-29T15:46:25.115Z,9.83
2019-04-29T15:49:27.402Z,11.33
2019-04-29T15:52:29.647Z,11.50
2019-04-29T15:55:34.946Z,12.83
2019-04-29T15:58:34.212Z,14.17
2019-04-29T16:01:41.099Z,9.50
2019-04-29T16:04:42.379Z,12.57
2019-04-29T16:07:55.784Z,11.57
2019-04-29T16:11:01.945Z,12.23
2019-04-29T16:17:07.195Z,14.60
2019-04-29T16:20:12.715Z,13.53
2019-04-29T16:23:14.943Z,15.23
2019-04-29T16:26:17.183Z,16.70
2019-04-29T16:29:19.391Z,15.20
2019-04-29T16:32:26.229Z,14.83
2019-04-29T16:35:34.505Z,17.73
2019-04-29T16:38:30.755Z,19.13
2019-04-29T16:41:45.391Z,13.80
2019-04-29T16:44:47.736Z,20.27
2019-04-29T16:47:50.137Z,15.87
2019-04-29T16:50:52.504Z,15.27
2019-04-29T16:53:54.923Z,14.57
2019-04-29T16:56:57.003Z,16.53
2019-04-29T16:59:59.527Z,15.33
2019-04-29T17:03:01.743Z,17.67
2019-04-29T17:06:03.978Z,15.77
2019-04-29T17:09:11.591Z,12.47
2019-04-29T17:12:14.036Z,14.97
2019-04-29T17:15:24.588Z,18.30
2019-04-29T17:18:18.676Z,13.53
2019-04-29T17:21:20.823Z,17.33
2019-04-29T17:24:23.111Z,15.87
2019-04-29T17:28:01.747Z,15.70
2019-04-29T17:31:12.666Z,19.17
2019-04-29T17:34:29.432Z,17.33
2019-04-29T17:35:17.729Z,22.17
2019-04-29T17:37:19.568Z,19.27
2019-04-29T17:40:21.853Z,20.43
2019-04-29T17:43:29.632Z,23.30
2019-04-29T17:46:37.315Z,19.07
2019-04-29T17:49:45.172Z,21.57
2019-04-29T17:52:47.463Z,20.20
2019-04-29T17:55:58.225Z,20.57
2019-04-29T17:59:06.007Z,27.07
2019-04-29T18:02:20.807Z,31.50
2019-04-29T18:05:32.988Z,29.93
2019-04-29T18:08:36.643Z,22.00
2019-04-29T18:11:50.528Z,17.57
2019-04-29T18:14:41.890Z,20.17
2019-04-29T18:17:45.417Z,20.37
2019-04-29T18:20:55.143Z,18.87
2019-04-29T18:24:00.827Z,24.00
2019-04-29T18:27:06.076Z,19.73
2019-04-29T18:30:12.323Z,23.33
2019-04-29T18:33:10.703Z,20.60
2019-04-29T18:36:21.866Z,21.20
2019-04-29T18:39:20.108Z,24.57
2019-04-29T18:42:21.008Z,22.93
2019-04-29T18:45:25.481Z,21.00
2019-04-29T18:48:27.133Z,25.20
2019-04-29T18:51:28.859Z,22.77
2019-04-29T18:54:30.057Z,23.50
2019-04-29T18:57:32.252Z,21.40
2019-04-29T19:00:34.883Z,19.73
2019-04-29T19:03:42.149Z,24.43
2019-04-29T19:06:44.436Z,22.20
2019-04-29T19:13:00.120Z,20.60
2019-04-29T19:16:09.105Z,26.07
2019-04-29T19:19:01.747Z,22.03
2019-04-29T19:22:05.791Z,24.60
2019-04-29T19:25:08.731Z,57.27
2019-04-29T19:28:14.270Z,20.63
2019-04-29T19:31:09.939Z,18.07
2019-04-29T19:34:14.810Z,16.87
2019-04-29T19:37:15.370Z,16.10
2019-04-29T19:40:16.207Z,16.30
2019-04-29T19:43:19.015Z,17.57
2019-04-29T19:46:24.308Z,17.50
2019-04-29T19:49:23.089Z,17.80
2019-04-29T19:52:31.323Z,17.77
2019-04-29T19:55:27.814Z,18.10
2019-04-29T19:58:31.833Z,18.70
2019-04-29T20:01:33.092Z,19.93
2019-04-29T20:04:52.431Z,17.07
2019-04-29T20:07:51.782Z,20.63
2019-04-29T20:10:54.878Z,16.53
2019-04-29T20:14:04.351Z,21.30
2019-04-29T20:17:12.863Z,18.20
2019-04-29T20:20:16.604Z,18.67
2019-04-29T20:23:24.750Z,75.97
2019-04-29T20:26:28.518Z,56.27
2019-04-29T20:29:28.583Z,28.50
2019-04-29T20:32:27.887Z,27.10
2019-04-29T20:35:27.748Z,20.50
2019-04-29T20:38:34.130Z,19.70
2019-04-29T20:41:41.184Z,19.20
2019-04-29T20:44:36.650Z,25.93
2019-04-29T20:47:40.547Z,20.90
2019-04-29T20:50:40.815Z,20.13
2019-04-29T20:53:46.136Z,22.67
2019-04-29T20:56:47.319Z,21.67
2019-04-29T20:59:50.579Z,23.20
2019-04-29T21:02:51.474Z,20.13
2019-04-29T21:05:54.950Z,20.00
2019-04-29T21:08:55.866Z,20.27
2019-04-29T21:12:20.412Z,22.17
2019-04-29T21:15:24.947Z,16.07
2019-04-29T21:18:27.081Z,19.33
2019-04-29T21:21:29.019Z,21.53
2019-04-29T21:24:31.255Z,21.83
2019-04-29T21:27:35.196Z,17.57
2019-04-29T21:30:42.324Z,18.23
2019-04-29T21:33:38.047Z,20.03
2019-04-29T21:36:45.751Z,16.57
2019-04-29T21:39:58.152Z,16.73
2019-04-29T21:43:13.472Z,13.93
2019-04-29T21:46:11.345Z,17.27
2019-04-29T21:49:13.548Z,14.30
2019-04-29T21:52:19.734Z,18.27
2019-04-29T21:55:20.513Z,15.10
2019-04-29T21:58:20.331Z,16.80
2019-04-29T22:01:22.598Z,14.27
2019-04-29T22:04:24.866Z,12.27
2019-04-29T22:07:27.101Z,23.87
2019-04-29T22:10:29.306Z,20.93
2019-04-29T22:13:37.520Z,18.40
2019-04-29T22:16:35.650Z,15.73
2019-04-29T22:19:36.135Z,17.33
2019-04-29T22:22:38.390Z,17.07
2019-04-29T22:25:41.199Z,16.37
2019-04-29T22:28:42.920Z,15.90
2019-04-29T22:31:45.885Z,15.97
2019-04-29T22:34:49.581Z,19.83
2019-04-29T22:37:49.671Z,17.23
2019-04-29T22:40:51.936Z,19.53
2019-04-29T22:43:57.771Z,16.47
2019-04-29T22:46:59.995Z,18.43
2019-04-29T22:50:03.143Z,19.40
2019-04-29T22:53:07.284Z,19.10
2019-04-29T22:56:08.958Z,19.77
2019-04-29T22:59:08.951Z,21.43
2019-04-29T23:02:11.195Z,19.63
2019-04-29T23:05:13.443Z,23.63
2019-04-29T23:08:15.716Z,23.80
2019-04-29T23:11:17.903Z,22.73
2019-04-29T23:14:20.093Z,20.70
2019-04-29T23:17:22.314Z,18.97
2019-04-29T23:20:30.127Z,19.80
2019-04-29T23:23:38.204Z,18.57
2019-04-29T23:26:42.318Z,18.87
2019-04-29T23:29:43.272Z,18.03
2019-04-29T23:32:44.294Z,20.03
2019-04-29T23:35:45.697Z,19.27
2019-04-29T23:38:47.915Z,18.53
2019-04-29T23:41:50.134Z,18.13
2019-04-29T23:44:52.335Z,16.57
2019-04-29T23:47:55.586Z,16.30
2019-04-29T23:50:58.250Z,19.87
2019-04-29T23:54:03.737Z,19.87
2019-04-29T23:57:08.951Z,19.83
